Fort Nelson Airport, British Columbia

Past 24 Hour Conditions

Date / Time
(PDT)
Conditions Temp
(°F)
Humidity
(%)
Dew Point
(°F)
Wind
(mph)
Pressure
(inches)
Vis
(mi)
Wind Chill
21 October 2014
13:00 Mist 34   100 34 SSE 4 29.6 1 *
12:00 Ice Fog 32 100 32 calm 29.6 0.5 31
11:00 Mist 31 100 31 SE 3 29.5 2 29
10:00 Mist 31 100 31 S 4 29.5 5 27
9:00 Mist 28   100 28 W 4 29.5 1 24
8:00 Ice Fog 28   100 28 NW 6 29.5 0.5 21
7:00 Ice Fog 29 100 29 NNW 3 29.5 0.5 26
6:00 Ice Fog 29 100 29 NW 3 29.5 0.5 26
5:00 Ice Fog 30 100 30 NW 2 29.5 0.5 27
4:00 Ice Fog 30 100 30 N 2 29.5 0.2 28
3:00 Ice Fog 30 100 30 calm 29.5 0.2 *
2:00 Ice Fog 30 100 30 NE 2 29.5 0.2 27
1:00 Ice Fog 30 100 30 S 3 29.5 0.2 27
00:00 Ice Fog 31 100 31 SE 2 29.5 0.2 30
20 October 2014
23:00 Fog 32 100 32 ENE 3 29.5 0.2 *
22:00 Fog 33 100 33 ESE 2 29.5 0.2 *
21:00 Fog 33 100 33 E 2 29.4 0.2 *
20:00 Fog 33 100 33 SSW 3 29.4 0.2 *
19:00 Fog 34   100 34 SE 3 29.4 0.2 *
18:00 Fog 34   100 34 SSW 3 29.4 0.2 *
17:00 Mist 34   100 34 SE 3 29.4 0.6 *
16:00 Mist 34   98 34 ENE 2 29.4 2 *
15:00 Mist 34   97 33 ESE 3 29.4 2 *
14:00 Mist 33 97 33 SSE 2 29.4 2 *
13:00 Mist 33 99 33 SSE 4 29.4 1 *
N/A Not available
↑ Highest temperature
↓ Lowest temperature
* Value not significant.

If you require additional historical weather information, please visit Climate Data Online.

Date modified: